Latest Weather Observations for Tamworth Airport

IDN60801

Issued at 6:02 am EST Sunday 29 May 2016 (issued every 30 minutes, with the page automatically refreshed every 10 minutes)

About weather observations | Map of weather stations | Latest weather observations for NSW | Other Formats
Station Details ID: 055325 Name: TAMWORTH AIRPORT AWS Lat: -31.07 Lon: 150.84 Height: 394.9 m
Data from the previous 72 hours. | See also: Recent months at Tamworth Airport
Date/Time
EST
Temp
°C
App
Temp
°C
Dew
Point
Rel
Hum
%
Delta-T
°C
Wind Press
QNH
hPa
Press
MSL
hPa
Rain
since 9 am
mm
Dir
 
Spd
km/h
Gust
km/h
Spd
kts
Gust
kts
29/05:30am 7.9 5.4 4.8 81 1.4 N 7 7 4 4 1018.3 1017.9 1.8
29/05:00am 8.1 5.3 5.0 81 1.4 NW 9 11 5 6 1018.0 1017.7 1.8
29/04:30am 8.1 4.6 5.6 84 1.2 NW 13 15 7 8 1017.9 1017.6 1.8
29/04:00am 8.1 4.7 5.7 85 1.1 NW 13 19 7 10 1017.9 1017.6 1.8
29/03:30am 8.1 5.0 5.7 85 1.1 NNW 11 15 6 8 1017.8 1017.5 1.8
29/03:00am 8.2 5.5 5.8 85 1.1 NNW 9 15 5 8 1017.7 1017.4 1.8
29/02:30am 8.2 4.8 5.8 85 1.1 NNW 13 15 7 8 1017.6 1017.3 1.8
29/02:00am 8.5 5.6 4.7 77 1.7 W 9 11 5 6 1017.5 1017.2 1.8
29/01:30am 8.4 5.7 5.5 82 1.3 WNW 9 13 5 7 1017.5 1017.2 1.8
29/01:00am 8.1 5.8 5.9 86 1.0 N 7 9 4 5 1017.5 1017.2 1.8
29/12:30am 7.8 5.1 5.4 85 1.1 NW 9 11 5 6 1017.4 1017.1 1.8
29/12:00am 7.8 5.1 5.4 85 1.1 NNW 9 11 5 6 1017.2 1016.9 1.8
 
Date/Time
EST
Temp
°C
App
Temp
°C
Dew
Point
Rel
Hum
%
Delta-T
°C
Wind Press
QNH
hPa
Press
MSL
hPa
Rain
since 9 am
mm
Dir
 
Spd
km/h
Gust
km/h
Spd
kts
Gust
kts
28/11:30pm 7.9 4.8 5.5 85 1.1 NW 11 15 6 8 1017.2 1016.9 1.8
28/11:00pm 8.1 3.9 5.6 84 1.1 NW 17 20 9 11 1017.4 1017.1 1.8
28/10:30pm 8.0 4.4 5.1 82 1.3 NNW 13 17 7 9 1017.3 1017.0 1.8
28/10:00pm 8.4 5.7 5.5 82 1.3 N 9 13 5 7 1017.3 1017.0 1.8
28/09:30pm 8.7 4.8 5.4 80 1.5 NW 15 20 8 11 1017.1 1016.7 1.8
28/09:00pm 8.9 4.3 5.5 79 1.6 WNW 19 24 10 13 1017.0 1016.6 1.8
28/08:30pm 8.7 4.8 5.3 79 1.6 NW 15 20 8 11 1016.7 1016.3 1.8
28/08:00pm 8.2 3.8 5.0 80 1.5 NW 17 20 9 11 1016.2 1015.8 1.8
28/07:30pm 8.5 4.2 5.1 79 1.6 NW 17 20 9 11 1016.0 1015.6 1.8
28/07:00pm 9.0 4.7 5.2 77 1.7 NNW 17 20 9 11 1015.1 1014.8 1.8
28/06:30pm 8.9 5.4 5.6 80 1.5 N 13 17 7 9 1014.9 1014.5 1.8
28/06:00pm 8.6 4.2 4.8 77 1.7 WNW 17 20 9 11 1014.3 1013.9 1.8
28/05:30pm 9.1 5.5 4.9 75 1.9 NW 13 17 7 9 1013.9 1013.5 1.8
28/05:00pm 9.8 4.9 5.0 72 2.2 WNW 20 32 11 17 1013.0 1012.6 1.8
28/04:30pm 10.3 3.9 5.1 70 2.4 WNW 28 41 15 22 1012.6 1012.2 1.8
28/04:13pm 11.1 4.7 5.4 68 2.7 WNW 28 46 15 25 1012.5 1012.1 1.8
28/04:00pm 10.7 3.3 4.8 67 2.7 WNW 33 44 18 24 1012.3 1011.9 1.8
28/03:30pm 11.1 3.7 5.2 67 2.8 WNW 33 44 18 24 1011.5 1011.1 1.8
28/03:00pm 10.6 4.0 6.2 74 2.1 WNW 30 39 16 21 1011.0 1010.6 1.8
28/02:30pm 10.1 6.3 7.7 85 1.2 W 17 22 9 12 1010.6 1010.1 1.8
28/02:24pm 9.5 5.0 6.8 83 1.3 W 20 30 11 16 1010.6 1010.1 1.8
28/02:01pm 9.6 2.2 5.0 73 2.1 NW 33 57 18 31 1010.3 1009.8 1.4
28/02:00pm 9.8 2.7 5.6 75 2.0 WNW 32 46 17 25 1010.3 1009.8 1.2
28/01:59pm 10.0 2.9 5.6 74 2.1 NW 32 46 17 25 1010.2 1009.7 1.2
28/01:30pm 12.5 5.3 5.0 60 3.5 WNW 32 46 17 25 1010.1 1009.6 0.4
28/01:00pm 14.0 6.4 5.6 57 4.1 WNW 35 48 19 26 1010.1 1009.6 0.4
28/12:32pm 12.7 4.9 4.9 59 3.7 WNW 35 57 19 31 1010.2 1009.7 0.4
28/12:30pm 12.9 5.6 5.3 60 3.6 WNW 33 50 18 27 1010.2 1009.7 0.4
28/12:15pm 11.9 4.5 5.1 63 3.2 WNW 33 52 18 28 1010.3 1009.8 0.4
28/12:00pm 11.5 4.9 6.0 69 2.6 WNW 30 41 16 22 1010.3 1009.8 0.4
28/11:30am 11.7 4.8 7.2 74 2.2 NW 33 48 18 26 1010.1 1009.6 0.4
28/11:00am 10.2 3.4 6.9 80 1.6 WNW 32 43 17 23 1011.0 1010.6 0.4
28/10:30am 10.4 5.1 6.7 78 1.8 NW 24 35 13 19 1011.1 1010.7 0.2
28/10:00am 9.0 4.8 5.9 81 1.5 NW 17 20 9 11 1011.6 1011.2 0.2
28/09:30am 9.2 5.5 6.3 82 1.4 NNW 15 19 8 10 1011.6 1011.2 0.0
28/09:00am 8.5 5.5 6.1 85 1.1 W 11 19 6 10 1011.9 1011.5 0.4
28/08:30am 7.5 5.3 5.1 85 1.1 NE 6 11 3 6 1011.5 1011.1 0.2
28/08:00am 7.5 6.4 5.0 84 1.1 CALM 0 4 0 2 1011.5 1011.1 0.2
28/07:30am 6.9 4.7 5.4 90 0.7 SSW 6 9 3 5 1011.6 1011.2 0.0
28/07:00am 4.1 1.8 2.5 89 0.7 SSE 4 9 2 5 1011.4 1011.0 0.0
28/06:30am 4.4 2.1 2.6 88 0.7 WSW 4 9 2 5 1011.3 1010.9 0.0
28/06:00am 4.3 1.4 2.7 89 0.7 SW 7 9 4 5 1011.4 1011.0 0.0
28/05:30am 4.2 2.2 2.1 86 0.9 ENE 2 6 1 3 1011.0 1010.6 0.0
28/05:00am 5.3 3.4 3.0 85 1.0 NW 2 7 1 4 1011.3 1010.9 0.0
28/04:30am 4.8 1.5 2.7 86 0.9 W 9 9 5 5 1011.5 1011.1 0.0
28/04:00am 4.8 1.9 2.5 85 1.0 W 7 9 4 5 1011.5 1011.1 0.0
28/03:30am 6.0 3.8 3.2 82 1.2 NW 4 7 2 4 1011.6 1011.2 0.0
28/03:00am 5.9 3.1 3.4 84 1.1 NW 7 9 4 5 1011.9 1011.5 0.0
28/02:30am 5.9 4.4 3.1 82 1.2 CALM 0 0 0 0 1012.2 1011.8 0.0
28/02:00am 6.1 4.7 3.3 82 1.2 CALM 0 0 0 0 1012.4 1012.0 0.0
28/01:30am 6.2 4.7 3.2 81 1.3 CALM 0 0 0 0 1012.9 1012.4 0.0
28/01:00am 6.1 4.7 3.3 82 1.2 CALM 0 0 0 0 1013.1 1012.7 0.0
28/12:30am 6.1 4.6 2.9 80 1.4 CALM 0 6 0 3 1013.4 1013.0 0.0
28/12:00am 6.5 3.7 3.1 79 1.5 N 7 7 4 4 1013.6 1013.2 0.0
 
Date/Time
EST
Temp
°C
App
Temp
°C
Dew
Point
Rel
Hum
%
Delta-T
°C
Wind Press
QNH
hPa
Press
MSL
hPa
Rain
since 9 am
mm
Dir
 
Spd
km/h
Gust
km/h
Spd
kts
Gust
kts
27/11:30pm 6.3 3.1 2.9 79 1.4 N 9 11 5 6 1013.8 1013.4 0.0
27/11:00pm 6.8 3.2 3.2 78 1.5 NNE 11 13 6 7 1014.0 1013.6 0.0
27/10:30pm 6.7 4.0 2.6 75 1.7 NNW 6 7 3 4 1013.6 1013.2 0.0
27/10:00pm 7.7 4.8 2.8 71 2.1 NNW 7 9 4 5 1013.6 1013.2 0.0
27/09:30pm 7.8 4.2 2.9 71 2.1 N 11 11 6 6 1013.6 1013.2 0.0
27/09:00pm 7.4 4.1 2.3 70 2.2 N 9 11 5 6 1013.4 1013.0 0.0
27/08:30pm 9.0 5.4 3.0 66 2.6 WNW 11 15 6 8 1013.3 1012.9 0.0
27/08:00pm 9.1 5.4 2.4 63 2.9 NW 11 11 6 6 1013.0 1012.6 0.0
27/07:30pm 10.3 6.7 2.9 60 3.3 WNW 11 15 6 8 1012.8 1012.3 0.0
27/07:00pm 10.2 6.2 3.0 61 3.2 WNW 13 15 7 8 1012.4 1012.0 0.0
27/06:30pm 10.5 6.9 2.8 59 3.4 WNW 11 15 6 8 1011.9 1011.5 0.0
27/06:00pm 10.4 6.0 2.7 59 3.4 W 15 19 8 10 1011.5 1011.1 0.0
27/05:30pm 11.4 7.0 2.7 55 3.9 W 15 20 8 11 1011.1 1010.7 0.0
27/05:00pm 12.1 6.7 2.6 52 4.2 W 20 28 11 15 1010.6 1010.1 0.0
27/04:30pm 13.3 8.0 2.8 49 4.7 W 20 32 11 17 1010.2 1009.7 0.0
27/04:00pm 13.4 7.7 2.6 48 4.9 W 22 32 12 17 1009.9 1009.5 0.0
27/03:30pm 14.5 8.4 2.7 45 5.4 W 24 33 13 18 1009.4 1009.0 0.0
27/03:00pm 14.0 7.9 2.9 47 5.1 W 24 35 13 19 1009.2 1008.8 0.0
27/02:30pm 14.7 7.3 1.9 42 5.7 W 30 41 16 22 1009.0 1008.6 0.0
27/02:00pm 14.8 8.0 3.3 46 5.3 WNW 28 37 15 20 1009.0 1008.6 0.0
27/01:30pm 15.0 9.1 3.8 47 5.2 WNW 24 37 13 20 1008.9 1008.5 0.0
27/01:00pm 15.5 9.3 4.3 47 5.3 WNW 26 39 14 21 1009.2 1008.8 0.0
27/12:30pm 14.9 8.5 3.4 46 5.3 WNW 26 37 14 20 1009.3 1008.9 0.0
27/12:00pm 12.9 6.8 2.7 50 4.6 WNW 24 33 13 18 1009.6 1009.2 0.0
27/11:30am 13.9 8.7 3.7 50 4.7 WNW 20 30 11 16 1009.8 1009.4 0.0
27/11:00am 13.7 8.7 4.6 54 4.3 WNW 20 28 11 15 1010.3 1009.8 0.0
27/10:30am 13.2 8.2 4.6 56 4.0 WNW 20 32 11 17 1010.4 1009.9 0.0
27/10:00am 13.2 9.0 5.6 60 3.7 WNW 17 24 9 13 1010.7 1010.2 0.0
27/09:30am 12.1 6.4 5.0 62 3.3 WNW 24 32 13 17 1010.7 1010.2 0.0
27/09:00am 12.0 7.2 5.4 64 3.1 WNW 20 30 11 16 1010.6 1010.1 16.8
27/08:30am 11.5 6.6 5.2 65 3.0 WNW 20 28 11 15 1010.4 1009.9 16.8
27/08:00am 11.4 7.3 6.3 71 2.5 NNW 17 24 9 13 1010.1 1009.6 16.8
27/07:30am 10.5 7.3 6.8 78 1.8 N 13 17 7 9 1009.8 1009.4 16.8
27/07:00am 9.7 6.3 5.9 77 1.8 WNW 13 20 7 11 1009.3 1008.9 16.8
27/06:30am 10.2 5.8 6.5 78 1.8 WNW 19 26 10 14 1008.9 1008.5 16.8
27/06:00am 10.4 5.9 6.9 79 1.7 WNW 20 32 11 17 1008.2 1007.7 16.8
27/05:30am 11.0 7.4 8.2 83 1.4 WNW 17 24 9 13 1007.8 1007.3 16.8
27/05:00am 11.2 7.2 8.4 83 1.4 WNW 19 26 10 14 1007.6 1007.1 16.8
27/04:30am 11.2 8.0 8.6 84 1.3 WNW 15 19 8 10 1007.2 1006.8 16.8
27/04:00am 11.3 7.1 8.3 82 1.5 W 20 24 11 13 1006.9 1006.5 16.8
27/03:30am 11.7 7.7 8.9 83 1.4 W 20 28 11 15 1007.2 1006.8 16.8
27/03:00am 12.0 8.1 9.6 85 1.2 W 20 28 11 15 1007.3 1006.9 16.8
27/02:42am 12.2 9.1 10.3 88 1.0 W 17 26 9 14 1007.3 1006.9 16.8
27/02:32am 12.3 9.3 10.5 89 1.0 W 17 26 9 14 1007.2 1006.8 16.8
27/02:30am 12.3 9.3 10.5 89 1.0 W 17 26 9 14 1007.2 1006.8 16.8
27/02:18am 12.5 9.1 10.7 89 1.0 WNW 19 24 10 13 1007.6 1007.1 15.4
27/02:11am 12.6 9.3 10.8 89 1.0 WNW 19 26 10 14 1007.1 1006.7 15.2
27/02:00am 12.6 9.3 10.8 89 1.0 WNW 19 28 10 15 1007.3 1006.9 15.2
27/01:47am 12.5 9.1 10.7 89 1.0 NW 19 22 10 12 1007.2 1006.8 15.0
27/01:30am 12.6 10.0 10.8 89 1.0 NW 15 20 8 11 1007.2 1006.8 14.6
27/01:24am 12.5 9.9 10.7 89 1.0 NW 15 19 8 10 1007.2 1006.8 14.6
27/01:00am 12.4 9.4 10.5 88 1.0 NW 17 22 9 12 1007.5 1007.0 14.6
27/12:30am 12.4 9.4 10.6 89 1.0 NW 17 20 9 11 1007.6 1007.1 14.6
27/12:00am 12.6 9.6 10.8 89 1.0 NW 17 20 9 11 1007.7 1007.2 14.6
 
Date/Time
EST
Temp
°C
App
Temp
°C
Dew
Point
Rel
Hum
%
Delta-T
°C
Wind Press
QNH
hPa
Press
MSL
hPa
Rain
since 9 am
mm
Dir
 
Spd
km/h
Gust
km/h
Spd
kts
Gust
kts
26/11:30pm 12.8 9.9 11.0 89 1.0 NW 17 22 9 12 1007.8 1007.3 14.6
26/11:26pm 12.9 10.0 11.1 89 1.0 NW 17 22 9 12 1007.8 1007.3 14.6
26/11:00pm 13.0 9.8 11.2 89 1.0 NW 19 24 10 13 1007.8 1007.3 14.6
26/10:30pm 13.0 10.9 11.2 89 1.0 NW 13 17 7 9 1007.6 1007.1 14.6
26/10:00pm 13.2 11.2 11.4 89 1.0 WNW 13 17 7 9 1007.9 1007.4 14.6
26/09:57pm 13.1 11.0 11.3 89 1.0 WNW 13 15 7 8 1007.8 1007.3 14.6
26/09:50pm 13.3 11.3 11.4 88 1.0 WNW 13 19 7 10 1007.7 1007.2 14.6
26/09:30pm 13.5 10.4 11.6 88 1.0 W 19 26 10 14 1007.8 1007.3 14.6
26/09:00pm 13.7 10.7 12.1 90 0.9 WNW 19 32 10 17 1007.8 1007.3 14.6
26/08:43pm 13.5 11.7 12.2 92 0.7 WNW 13 20 7 11 1007.9 1007.4 14.6
26/08:30pm 13.0 11.4 11.6 91 0.8 NW 11 15 6 8 1007.9 1007.4 14.6
26/08:00pm 12.6 10.9 11.2 91 0.8 NW 11 13 6 7 1007.7 1007.2 14.4
26/07:30pm 12.6 10.5 11.0 90 0.9 NW 13 17 7 9 1007.7 1007.2 14.2
26/07:10pm 12.7 10.9 10.9 89 1.0 NNW 11 17 6 9 1007.6 1007.1 13.8
26/07:00pm 12.7 11.3 10.9 89 1.0 NW 9 13 5 7 1007.5 1007.0 13.8
26/06:30pm 13.0 10.9 11.2 89 1.0 WNW 13 17 7 9 1007.6 1007.1 13.8
26/06:00pm 13.0 11.0 11.4 90 0.9 NW 13 17 7 9 1007.0 1006.6 13.8
26/05:41pm 12.9 10.1 11.3 90 0.9 N 17 22 9 12 1006.5 1006.1 13.8
26/05:35pm 12.9 9.7 11.3 90 0.9 N 19 24 10 13 1006.6 1006.2 13.8
26/05:30pm 12.9 9.7 11.3 90 0.9 N 19 24 10 13 1006.7 1006.3 13.8
26/05:23pm 12.8 9.4 11.2 90 0.9 N 20 26 11 14 1006.7 1006.3 13.8
26/05:00pm 12.9 9.7 11.3 90 0.9 NNW 19 28 10 15 1007.0 1006.6 13.0
26/04:56pm 12.8 10.0 11.2 90 0.9 NNW 17 22 9 12 1007.0 1006.6 12.6
26/04:40pm 12.7 11.0 11.1 90 0.9 NNW 11 15 6 8 1007.2 1006.8 11.4
26/04:37pm 12.7 10.6 11.1 90 0.9 NNW 13 17 7 9 1007.1 1006.7 11.2
26/04:30pm 12.6 10.1 11.0 90 0.9 N 15 19 8 10 1006.9 1006.5 11.0
26/04:15pm 12.3 9.7 10.7 90 0.8 NNW 15 20 8 11 1007.3 1006.9 10.2
26/04:14pm 12.3 9.7 10.7 90 0.8 NNW 15 20 8 11 1007.3 1006.9 10.0
26/04:07pm 12.3 9.3 10.5 89 1.0 NNW 17 24 9 13 1007.6 1007.1 9.8
26/04:00pm 12.3 9.3 10.5 89 1.0 NNW 17 24 9 13 1007.7 1007.2 9.6
26/03:46pm 12.1 9.0 10.3 89 0.9 NNW 17 20 9 11 1008.0 1007.5 8.8
26/03:41pm 12.1 9.0 10.3 89 0.9 NNW 17 22 9 12 1008.2 1007.7 8.2
26/03:35pm 12.1 9.0 10.3 89 0.9 NNW 17 22 9 12 1008.0 1007.5 7.8
26/03:30pm 12.1 9.0 10.2 88 1.0 NNW 17 22 9 12 1008.2 1007.7 7.6
26/03:00pm 11.9 9.0 9.6 86 1.2 W 15 20 8 11 1008.7 1008.3 6.4
26/02:30pm 11.7 9.9 9.6 87 1.1 NNE 9 13 5 7 1008.0 1007.5 6.4
26/02:12pm 10.6 9.9 8.4 86 1.1 W 2 9 1 5 1008.3 1007.8 6.4
26/02:00pm 10.4 8.3 8.2 86 1.1 SW 9 11 5 6 1009.0 1008.6 6.2
26/01:52pm 10.3 7.8 8.1 86 1.1 WSW 11 15 6 8 1009.2 1008.8 6.0
26/01:30pm 10.4 8.7 7.5 82 1.4 N 6 7 3 4 1009.3 1008.9 5.2
26/01:21pm 10.2 8.2 7.3 82 1.4 NE 7 13 4 7 1009.5 1009.1 5.0
26/01:00pm 10.5 9.3 6.6 77 1.9 N 2 7 1 4 1010.4 1009.9 4.0
26/12:55pm 10.7 9.5 6.6 76 2.0 S 2 7 1 4 1010.7 1010.2 4.0
26/12:30pm 10.7 8.6 6.8 77 1.9 E 7 7 4 4 1011.1 1010.7 3.2
26/12:00pm 10.4 7.4 6.2 75 2.0 ENE 11 17 6 9 1011.4 1011.0 2.8
26/11:30am 10.0 6.1 6.9 81 1.5 NE 17 24 9 13 1012.4 1012.0 2.8
26/11:19am 10.5 8.4 6.8 78 1.8 NNE 7 15 4 8 1012.9 1012.4 2.6
26/11:00am 10.2 7.1 7.1 81 1.5 SW 13 15 7 8 1014.9 1014.5 2.2
26/10:57am 10.3 7.4 6.6 78 1.8 SSW 11 15 6 8 1014.8 1014.4 2.2
26/10:35am 10.9 8.7 6.1 72 2.3 W 7 13 4 7 1014.2 1013.8 1.0
26/10:30am 11.5 9.6 6.6 72 2.4 NW 6 9 3 5 1014.3 1013.9 0.6
26/10:00am 11.7 9.2 4.9 63 3.2 SW 7 11 4 6 1013.6 1013.2 0.2
26/09:30am 13.6 10.6 -1.9 34 6.3 SSE 4 13 2 7 1012.9 1012.4 0.0
26/09:00am 12.7 8.2 -0.2 41 5.4 S 13 17 7 9 1012.3 1011.9 0.0
26/08:30am 12.3 8.1 -0.6 41 5.4 SSE 11 13 6 7 1012.5 1012.1 0.0
26/08:00am 10.0 6.6 -0.5 48 4.3 SE 7 9 4 5 1012.9 1012.4 0.0
26/07:30am 8.6 4.8 -0.4 53 3.6 E 9 13 5 7 1013.4 1013.0 0.0
26/07:00am 6.4 2.5 -1.2 58 2.9 SSW 9 11 5 6 1014.0 1013.6 0.0
26/06:30am 6.5 2.8 -0.2 62 2.6 WSW 9 9 5 5 1014.0 1013.6 0.0

Other Formats:

Comma delimited format used in spreadsheet applications
http://www.bom.gov.au/fwo/IDN60801/IDN60801.95762.axf

JavaScript Object Notation format (JSON) in row-major order
http://www.bom.gov.au/fwo/IDN60801/IDN60801.95762.json